Gordon Lakes, New Jersey
Current Conditions -  °F | °C
As of 2:53 AM on Thursday 27 Nov 2014 (Local Time) from KFWN Reporting Station
Overcast Overcast  
Wind Chill: 33°   Ceiling: 6000
Heat Index: 33°   Visibility: 10mi
Dew Point: 30°   Wind: 0mph
Humidity: 89%   Direction: NA
Pressure: 29.9"   Gusts: NA
Location:  41.0879°N, 74.3771°W
Report Text: KFWN 270753Z AUTO 00000KT 10SM FEW044 OVC060 01/M01 A2990 RMK AO2 SLP129 T00061011
Loading
Personal Weather Stations






























Interactive Weather Map New forecast layout! Learn more

10-Day Weather Forecast

Advertisements
Track Severe Weather on mobile